Time;durP1;ratioP1;P1;durP2;ratioP2;P2;SDS_P1;SDS_P2;PMS_P1;PMS_P2;Temp;Humidity;BMP_temperature;BMP_pressure;BME280_temperature;BME280_humidity;BME280_pressure;Samples;Min_cycle;Max_cycle;Signal;HPM_P1;HPM_P2
2021/03/01 00:01:55;;;;;;;6.73;6.03;;;5.10;1.00;;;;;;4843396;28;20273;-75
2021/03/01 00:04:17;;;;;;;7.90;6.90;;;5.00;1.00;;;;;;4842950;28;20280;-74
2021/03/01 00:06:40;;;;;;;7.63;6.27;;;4.90;1.00;;;;;;4848176;28;20218;-75
2021/03/01 00:09:02;;;;;;;7.70;6.67;;;4.90;1.00;;;;;;4846390;28;20243;-74
2021/03/01 00:11:24;;;;;;;7.13;6.43;;;4.80;66.40;;;;;;4847270;28;20277;-76
2021/03/01 00:13:46;;;;;;;8.17;7.23;;;4.70;93.80;;;;;;4846968;28;20186;-75
2021/03/01 00:16:10;;;;;;;8.23;7.43;;;4.60;99.90;;;;;;4850217;28;20676;-75
2021/03/01 00:18:32;;;;;;;8.00;7.20;;;4.50;99.90;;;;;;4845191;28;20376;-72
2021/03/01 00:20:54;;;;;;;7.90;7.20;;;4.50;1.00;;;;;;4852720;28;20190;-74
2021/03/01 00:23:16;;;;;;;8.70;6.70;;;4.50;1.00;;;;;;4845350;28;20264;-74
2021/03/01 00:25:40;;;;;;;8.73;7.83;;;4.40;1.00;;;;;;4846207;28;20237;-74
2021/03/01 00:28:02;;;;;;;9.17;8.20;;;4.40;1.00;;;;;;4846711;28;20190;-73
2021/03/01 00:30:24;;;;;;;11.40;9.37;;;4.30;1.00;;;;;;4846087;28;20267;-75
2021/03/01 00:32:47;;;;;;;8.93;8.03;;;4.30;1.00;;;;;;4848605;28;20845;-74
2021/03/01 00:35:11;;;;;;;9.00;8.10;;;4.30;45.00;;;;;;4839201;28;20645;-74
2021/03/01 00:37:33;;;;;;;9.10;8.20;;;4.20;99.90;;;;;;4844851;28;20249;-73
2021/03/01 00:39:55;;;;;;;9.43;8.10;;;4.20;99.90;;;;;;4827091;28;20270;-75
2021/03/01 00:42:17;;;;;;;9.63;8.60;;;4.20;99.90;;;;;;4847235;28;20233;-73
2021/03/01 00:44:40;;;;;;;10.23;9.03;;;4.10;1.00;;;;;;4852841;28;20603;-75
2021/03/01 00:47:02;;;;;;;9.63;8.60;;;4.10;1.00;;;;;;4853080;28;20572;-73
2021/03/01 00:49:25;;;;;;;9.57;8.53;;;4.10;1.00;;;;;;4847897;28;20665;-74
2021/03/01 00:51:47;;;;;;;10.07;8.33;;;4.10;1.00;;;;;;4841327;28;20209;-75
2021/03/01 00:54:14;;;;;;;8.27;7.47;;;4.10;1.00;;;;;;4842282;28;20328;-73
2021/03/01 00:56:45;;;;;;;9.03;8.13;;;4.10;1.00;;;;;;4844492;28;20206;-74
2021/03/01 00:59:07;;;;;;;9.13;8.23;;;4.10;1.00;;;;;;4851487;28;20738;-74
2021/03/01 01:01:31;;;;;;;9.57;8.57;;;4.10;1.00;;;;;;4845797;28;20748;-73
2021/03/01 01:03:53;;;;;;;9.07;8.17;;;4.00;1.00;;;;;;4847617;28;20684;-74
2021/03/01 01:06:23;;;;;;;12.50;9.73;;;4.00;1.00;;;;;;4854919;28;20210;-73
2021/03/01 01:08:45;;;;;;;9.97;8.97;;;4.00;1.00;;;;;;4847795;28;20648;-73
2021/03/01 01:11:08;;;;;;;11.00;9.00;;;4.00;1.00;;;;;;4857344;28;20236;-73
2021/03/01 01:13:30;;;;;;;10.57;9.37;;;4.00;1.00;;;;;;4848712;28;20194;-73
2021/03/01 01:15:52;;;;;;;11.50;9.70;;;4.00;87.10;;;;;;4844935;28;20604;-73
2021/03/01 01:18:14;;;;;;;10.70;9.40;;;4.00;99.90;;;;;;4851401;28;20190;-73
2021/03/01 01:20:36;;;;;;;11.30;9.13;;;4.00;99.90;;;;;;4852264;28;20206;-75
2021/03/01 01:22:59;;;;;;;10.67;9.57;;;4.00;99.90;;;;;;4854917;28;20230;-74
2021/03/01 01:25:22;;;;;;;10.87;9.10;;;4.00;99.90;;;;;;4843711;28;20194;-74
2021/03/01 01:27:44;;;;;;;10.20;9.10;;;4.00;99.90;;;;;;4827057;28;20202;-74
2021/03/01 01:30:08;;;;;;;10.10;9.07;;;4.00;99.90;;;;;;4848032;28;20197;-74
2021/03/01 01:32:30;;;;;;;10.63;9.13;;;4.00;97.00;;;;;;4850844;28;20186;-74
2021/03/01 01:34:52;;;;;;;10.03;8.90;;;4.00;99.90;;;;;;4848997;28;20189;-74
2021/03/01 01:37:15;;;;;;;9.23;8.10;;;4.00;99.90;;;;;;4844755;28;20645;-74
2021/03/01 01:39:38;;;;;;;10.17;8.67;;;3.90;47.30;;;;;;4850458;28;20214;-75
2021/03/01 01:42:00;;;;;;;9.37;8.13;;;3.90;1.00;;;;;;4857490;28;20190;-75
2021/03/01 01:44:22;;;;;;;10.00;8.47;;;3.90;17.50;;;;;;4849810;28;20191;-75
2021/03/01 01:46:44;;;;;;;10.73;9.07;;;3.90;26.50;;;;;;4845377;28;20243;-75
2021/03/01 01:49:06;;;;;;;9.93;8.30;;;3.90;99.90;;;;;;4849413;28;20202;-75
2021/03/01 01:51:28;;;;;;;10.03;8.67;;;3.90;99.90;;;;;;4849872;28;20206;-74
2021/03/01 01:53:51;;;;;;;9.37;8.13;;;3.90;99.90;;;;;;4849073;28;20284;-73
2021/03/01 01:56:14;;;;;;;10.53;8.70;;;3.90;1.00;;;;;;4847822;28;20186;-74
2021/03/01 01:58:36;;;;;;;9.97;8.77;;;3.90;1.00;;;;;;4824373;28;20254;-73
2021/03/01 02:00:59;;;;;;;10.17;8.13;;;3.90;1.00;;;;;;4850677;28;20213;-75
2021/03/01 02:03:36;;;;;;;9.03;8.03;;;3.90;99.90;;;;;;4839408;28;20273;-75
2021/03/01 02:06:02;;;;;;;10.17;8.40;;;3.90;99.90;;;;;;4842668;28;20224;-75
2021/03/01 02:08:31;;;;;;;10.70;8.50;;;3.90;99.90;;;;;;4854830;28;20206;-74
2021/03/01 02:10:58;;;;;;;10.33;8.90;;;3.90;99.90;;;;;;4846972;28;20596;-75
2021/03/01 02:13:28;;;;;;;10.20;8.37;;;4.00;99.90;;;;;;4848716;28;20534;-74
2021/03/01 02:15:54;;;;;;;8.97;7.97;;;3.90;99.90;;;;;;4845428;28;20192;-73
2021/03/01 02:18:16;;;;;;;9.23;8.23;;;4.00;99.90;;;;;;4847098;28;20186;-74
2021/03/01 02:20:43;;;;;;;9.53;8.43;;;4.00;99.90;;;;;;4850877;28;20252;-74
2021/03/01 02:23:06;;;;;;;8.87;7.87;;;4.00;99.90;;;;;;4846921;28;20222;-73
2021/03/01 02:25:31;;;;;;;9.07;7.77;;;4.00;99.90;;;;;;4827277;28;20203;-74
2021/03/01 02:27:57;;;;;;;10.60;8.57;;;4.00;99.90;;;;;;4847474;28;20185;-74
2021/03/01 02:30:25;;;;;;;10.00;8.33;;;4.00;99.90;;;;;;4848373;28;20628;-73
2021/03/01 02:32:48;;;;;;;9.17;8.27;;;4.00;99.90;;;;;;4846084;28;20240;-73
2021/03/01 02:35:12;;;;;;;10.40;8.47;;;3.90;88.10;;;;;;4849207;28;20222;-73
2021/03/01 02:37:38;;;;;;;12.20;9.00;;;4.00;99.90;;;;;;4847824;28;20237;-73
2021/03/01 02:40:03;;;;;;;10.13;8.73;;;4.00;99.90;;;;;;4848057;28;20265;-74
2021/03/01 02:42:27;;;;;;;10.43;9.00;;;4.00;99.90;;;;;;4844285;28;20182;-74
2021/03/01 02:44:50;;;;;;;9.73;8.63;;;4.00;99.90;;;;;;4850244;28;20232;-73
2021/03/01 02:47:13;;;;;;;10.63;9.07;;;4.00;99.90;;;;;;4849659;28;20620;-73
2021/03/01 02:49:37;;;;;;;11.00;9.40;;;4.00;1.00;;;;;;4844910;28;20640;-73
2021/03/01 02:52:01;;;;;;;11.27;8.77;;;4.00;1.00;;;;;;4851484;28;20198;-74
2021/03/01 02:54:24;;;;;;;9.80;8.53;;;4.00;1.00;;;;;;4843783;28;20711;-76
2021/03/01 02:56:49;;;;;;;10.27;8.77;;;4.00;1.00;;;;;;4855450;28;20245;-74
2021/03/01 02:59:12;;;;;;;9.47;8.30;;;4.00;1.00;;;;;;4842164;28;20199;-73
2021/03/01 03:01:36;;;;;;;9.33;8.03;;;4.00;1.00;;;;;;4847713;28;20233;-74
2021/03/01 03:04:00;;;;;;;8.40;7.47;;;4.00;99.90;;;;;;4846142;28;20216;-75
2021/03/01 03:06:24;;;;;;;10.67;8.50;;;4.00;99.90;;;;;;4856002;28;20212;-75
2021/03/01 03:08:47;;;;;;;9.33;7.63;;;4.00;99.90;;;;;;4846098;28;20245;-73
2021/03/01 03:11:10;;;;;;;8.90;7.60;;;3.90;99.90;;;;;;4848894;28;20198;-73
2021/03/01 03:13:34;;;;;;;9.50;7.07;;;4.00;99.90;;;;;;4840603;28;20190;-75
2021/03/01 03:15:58;;;;;;;9.80;7.70;;;4.00;99.90;;;;;;4842999;28;20186;-75
2021/03/01 03:18:20;;;;;;;9.97;7.73;;;3.90;99.90;;;;;;4847911;28;20181;-74
2021/03/01 03:20:42;;;;;;;9.30;7.83;;;4.00;99.90;;;;;;4846613;28;20219;-74
2021/03/01 03:23:05;;;;;;;9.33;7.97;;;4.00;99.90;;;;;;4844941;28;20230;-74
2021/03/01 03:25:28;;;;;;;10.10;8.70;;;4.00;1.00;;;;;;4846992;28;20560;-74
2021/03/01 03:27:50;;;;;;;10.60;8.83;;;4.00;99.90;;;;;;4847141;28;20191;-75
2021/03/01 03:30:21;;;;;;;11.37;8.43;;;4.00;99.90;;;;;;4853127;28;20194;-75
2021/03/01 03:32:44;;;;;;;14.03;9.67;;;4.00;99.90;;;;;;4845161;28;20186;-75
2021/03/01 03:35:09;;;;;;;10.50;9.40;;;4.00;99.90;;;;;;4847551;28;20241;-75
2021/03/01 03:37:35;;;;;;;11.80;10.23;;;4.00;1.00;;;;;;4847320;28;20198;-74
2021/03/01 03:39:59;;;;;;;11.57;9.20;;;4.00;1.00;;;;;;4853766;28;20209;-74
2021/03/01 03:42:24;;;;;;;11.07;9.30;;;4.00;1.00;;;;;;4846751;28;21866;-73
2021/03/01 03:44:46;;;;;;;10.87;9.73;;;4.10;1.00;;;;;;4843922;28;20190;-74
2021/03/01 03:47:10;;;;;;;12.03;10.40;;;4.10;1.00;;;;;;4847575;28;20191;-75
2021/03/01 03:49:33;;;;;;;12.60;10.03;;;4.10;1.00;;;;;;4846776;28;20648;-75
2021/03/01 03:51:59;;;;;;;11.43;9.67;;;4.10;1.00;;;;;;4846244;28;20185;-76
2021/03/01 03:54:24;;;;;;;12.60;9.97;;;4.10;1.00;;;;;;4844406;28;20240;-74
2021/03/01 03:56:52;;;;;;;11.53;9.70;;;4.10;1.00;;;;;;4850689;28;20247;-75
2021/03/01 03:59:19;;;;;;;14.07;11.10;;;4.10;1.00;;;;;;4842004;28;20194;-73
2021/03/01 04:01:42;;;;;;;13.13;11.33;;;4.10;99.90;;;;;;4846954;28;20350;-73
2021/03/01 04:04:09;;;;;;;10.60;9.47;;;4.10;1.00;;;;;;4840544;28;20252;-73
2021/03/01 04:06:33;;;;;;;12.53;9.67;;;4.10;1.00;;;;;;4847690;28;20193;-75
2021/03/01 04:08:57;;;;;;;10.00;8.97;;;4.10;99.90;;;;;;4853879;28;20236;-74
2021/03/01 04:11:21;;;;;;;11.13;9.97;;;4.10;99.90;;;;;;4847742;28;20194;-75
2021/03/01 04:13:46;;;;;;;12.63;9.70;;;4.10;99.90;;;;;;4843546;28;20190;-74
2021/03/01 04:16:09;;;;;;;12.03;8.93;;;4.10;99.90;;;;;;4840611;28;20249;-75
2021/03/01 04:18:35;;;;;;;11.83;10.03;;;4.10;99.90;;;;;;4849724;28;20267;-73
2021/03/01 04:21:02;;;;;;;10.63;8.97;;;4.10;99.90;;;;;;4848716;28;20213;-75
2021/03/01 04:23:25;;;;;;;12.70;9.77;;;4.10;99.90;;;;;;4837894;28;20191;-73
2021/03/01 04:25:48;;;;;;;10.83;9.70;;;4.10;99.90;;;;;;4846099;28;20581;-73
2021/03/01 04:28:12;;;;;;;11.03;9.00;;;4.10;99.90;;;;;;4845253;28;20194;-74
2021/03/01 04:30:35;;;;;;;11.40;9.43;;;4.10;99.90;;;;;;4845862;28;20883;-76
2021/03/01 04:32:59;;;;;;;11.77;9.63;;;4.10;1.00;;;;;;4843236;28;20229;-74
2021/03/01 04:35:23;;;;;;;12.40;9.37;;;4.10;99.90;;;;;;4846820;28;20317;-74
2021/03/01 04:37:47;;;;;;;11.27;9.20;;;4.10;99.90;;;;;;4848207;28;20252;-75
2021/03/01 04:40:10;;;;;;;10.57;9.47;;;4.10;99.90;;;;;;4841213;28;20210;-76
2021/03/01 04:42:33;;;;;;;12.97;10.07;;;4.10;99.90;;;;;;4851612;28;20310;-73
2021/03/01 04:44:56;;;;;;;11.40;9.30;;;4.10;1.00;;;;;;4845038;28;20669;-76
2021/03/01 04:47:19;;;;;;;10.97;9.63;;;4.00;1.00;;;;;;4846026;28;20203;-74
2021/03/01 04:49:42;;;;;;;10.87;9.13;;;4.10;1.00;;;;;;4847576;28;20186;-75
2021/03/01 04:52:05;;;;;;;11.27;9.63;;;4.10;1.00;;;;;;4841737;28;20252;-74
2021/03/01 04:54:29;;;;;;;10.90;8.63;;;4.10;1.00;;;;;;4842757;28;20240;-76
2021/03/01 04:56:52;;;;;;;11.37;9.43;;;4.10;1.00;;;;;;4847556;28;20198;-75
2021/03/01 04:59:15;;;;;;;11.47;9.83;;;4.10;1.00;;;;;;4848520;28;20561;-74
2021/03/01 05:01:38;;;;;;;12.10;9.87;;;4.10;1.00;;;;;;4845969;28;20269;-75
2021/03/01 05:04:00;;;;;;;11.50;9.50;;;4.10;1.00;;;;;;4845767;28;20630;-76
2021/03/01 05:06:23;;;;;;;12.20;10.17;;;4.10;97.20;;;;;;4847834;28;20252;-75
2021/03/01 05:08:48;;;;;;;11.77;9.57;;;4.10;37.80;;;;;;4848319;28;20187;-75
2021/03/01 05:11:11;;;;;;;12.57;9.77;;;4.10;99.90;;;;;;4845251;28;20265;-74
2021/03/01 05:13:33;;;;;;;12.60;9.57;;;4.10;99.90;;;;;;4847707;28;20589;-75
2021/03/01 05:15:56;;;;;;;10.83;9.00;;;4.10;99.90;;;;;;4841720;28;20186;-75
2021/03/01 05:18:18;;;;;;;11.13;9.93;;;4.10;99.90;;;;;;4844931;28;20241;-74
2021/03/01 05:20:40;;;;;;;12.73;10.00;;;4.10;1.00;;;;;;4849376;28;20281;-74
2021/03/01 05:23:02;;;;;;;12.90;10.30;;;4.10;1.00;;;;;;4844297;28;20239;-73
2021/03/01 05:25:24;;;;;;;12.40;10.30;;;4.10;1.00;;;;;;4846067;28;20243;-74
2021/03/01 05:27:47;;;;;;;12.87;10.30;;;4.10;1.00;;;;;;4841629;28;20240;-73
2021/03/01 05:30:11;;;;;;;11.40;9.63;;;4.10;1.00;;;;;;4845923;28;20198;-74
2021/03/01 05:32:34;;;;;;;13.23;10.80;;;4.10;1.00;;;;;;4839840;28;20198;-74
2021/03/01 05:34:56;;;;;;;12.63;9.90;;;4.10;1.00;;;;;;4844483;28;20609;-74
2021/03/01 05:37:18;;;;;;;25.67;19.33;;;4.00;99.90;;;;;;4847837;28;20195;-75
2021/03/01 05:39:40;;;;;;;21.13;15.50;;;4.10;99.90;;;;;;4837671;28;20607;-75
2021/03/01 05:42:03;;;;;;;14.03;11.20;;;4.10;99.90;;;;;;4846095;28;20222;-73
2021/03/01 05:44:27;;;;;;;11.30;9.77;;;4.10;1.00;;;;;;4846801;28;20260;-74
2021/03/01 05:46:50;;;;;;;11.93;9.80;;;4.10;1.00;;;;;;4852358;28;20183;-74
2021/03/01 05:49:13;;;;;;;11.77;9.17;;;4.10;1.00;;;;;;4842145;28;20191;-74
2021/03/01 05:51:36;;;;;;;11.87;9.47;;;4.10;1.00;;;;;;4853185;28;20185;-75
2021/03/01 05:54:01;;;;;;;11.43;9.47;;;4.10;1.00;;;;;;4858491;28;20186;-75
2021/03/01 05:56:23;;;;;;;13.27;10.17;;;4.10;1.00;;;;;;4859945;28;20648;-74
2021/03/01 05:58:46;;;;;;;12.60;10.20;;;4.10;24.30;;;;;;4859897;28;20198;-76
2021/03/01 06:01:09;;;;;;;13.33;9.83;;;4.10;5.90;;;;;;4858207;28;20218;-75
2021/03/01 06:03:32;;;;;;;13.67;10.23;;;4.10;99.90;;;;;;4859364;28;20178;-74
2021/03/01 06:05:54;;;;;;;15.10;11.60;;;4.10;99.90;;;;;;4859019;28;20209;-75
2021/03/01 06:08:17;;;;;;;17.00;12.90;;;4.20;1.00;;;;;;4857979;28;20222;-73
2021/03/01 06:10:39;;;;;;;18.83;14.27;;;4.20;1.00;;;;;;4859819;28;20659;-75
2021/03/01 06:13:01;;;;;;;17.23;13.73;;;4.20;1.00;;;;;;4859324;28;20186;-75
2021/03/01 06:15:24;;;;;;;16.57;12.43;;;4.20;1.00;;;;;;4858952;28;20256;-75
2021/03/01 06:18:04;;;;;;;15.40;13.03;;;4.20;1.00;;;;;;4859414;28;20603;-74
2021/03/01 06:20:27;;;;;;;17.63;13.17;;;4.30;1.00;;;;;;4859458;28;20197;-75
2021/03/01 06:22:49;;;;;;;18.00;14.20;;;4.30;1.00;;;;;;4859453;28;20284;-75
2021/03/01 06:25:13;;;;;;;19.33;13.33;;;4.30;1.00;;;;;;4857527;28;20193;-74
2021/03/01 06:27:48;;;;;;;17.93;14.40;;;4.30;1.00;;;;;;4858635;28;20548;-75
2021/03/01 06:30:12;;;;;;;18.50;13.93;;;4.30;1.00;;;;;;4859352;28;20272;-74
2021/03/01 06:32:34;;;;;;;17.20;13.87;;;4.40;1.00;;;;;;4859480;28;20652;-73
2021/03/01 06:34:57;;;;;;;17.83;14.03;;;4.40;1.00;;;;;;4858680;28;20182;-76
2021/03/01 06:37:19;;;;;;;19.03;15.03;;;4.40;1.00;;;;;;4858261;28;20684;-74
2021/03/01 06:39:42;;;;;;;17.30;15.47;;;4.40;1.00;;;;;;4859389;28;20190;-76
2021/03/01 06:42:22;;;;;;;18.50;13.73;;;4.50;99.90;;;;;;4859526;28;20264;-75
2021/03/01 06:44:45;;;;;;;19.27;15.20;;;4.50;99.90;;;;;;4857134;28;20186;-75
2021/03/01 06:47:07;;;;;;;17.47;14.00;;;4.50;99.90;;;;;;4859130;28;20720;-75
2021/03/01 06:49:36;;;;;;;17.03;13.70;;;4.50;99.90;;;;;;4856763;28;20601;-76
2021/03/01 06:51:59;;;;;;;15.87;12.97;;;4.50;99.90;;;;;;4859135;28;20194;-75
2021/03/01 06:54:22;;;;;;;15.87;12.27;;;4.50;99.90;;;;;;4857015;28;20190;-74
2021/03/01 06:56:45;;;;;;;15.23;12.07;;;4.60;42.30;;;;;;4858270;28;20583;-74
2021/03/01 06:59:15;;;;;;;14.07;11.20;;;4.60;1.00;;;;;;4856556;28;20221;-75
2021/03/01 07:01:45;;;;;;;14.80;11.70;;;4.70;1.00;;;;;;4857017;28;20214;-76
2021/03/01 07:04:07;;;;;;;14.37;11.13;;;4.60;1.00;;;;;;4858252;28;20182;-75
2021/03/01 07:06:34;;;;;;;13.40;10.57;;;4.70;1.00;;;;;;4858637;28;20272;-76
2021/03/01 07:08:57;;;;;;;13.60;11.13;;;4.70;1.00;;;;;;4857523;28;20216;-75
2021/03/01 07:11:31;;;;;;;15.27;11.30;;;4.70;1.00;;;;;;4857826;28;20190;-76
2021/03/01 07:13:55;;;;;;;13.90;10.47;;;4.70;99.90;;;;;;4858251;28;20182;-75
2021/03/01 07:16:17;;;;;;;12.90;10.93;;;4.80;99.90;;;;;;4848081;28;20203;-73
2021/03/01 07:18:50;;;;;;;14.13;10.90;;;4.90;1.00;;;;;;4839563;28;20535;-75
2021/03/01 07:21:19;;;;;;;13.13;10.67;;;4.80;1.00;;;;;;4853191;28;20218;-74
2021/03/01 07:23:44;;;;;;;11.90;9.37;;;4.90;1.00;;;;;;4856747;28;20240;-75
2021/03/01 07:26:09;;;;;;;11.13;9.17;;;4.90;1.00;;;;;;4858662;28;20182;-75
2021/03/01 07:28:33;;;;;;;12.50;9.90;;;4.90;99.90;;;;;;4858491;28;20527;-74
2021/03/01 07:30:55;;;;;;;13.33;10.73;;;5.00;99.90;;;;;;4858139;28;20245;-75
2021/03/01 07:33:18;;;;;;;13.80;11.13;;;5.00;99.90;;;;;;4856674;28;20190;-74
2021/03/01 07:35:41;;;;;;;12.77;9.93;;;5.00;99.90;;;;;;4854703;28;20737;-75
2021/03/01 07:38:05;;;;;;;12.63;9.97;;;5.10;99.90;;;;;;4837894;28;20291;-76
2021/03/01 07:40:27;;;;;;;15.93;12.13;;;5.10;91.20;;;;;;4837820;28;20206;-75
2021/03/01 07:42:51;;;;;;;14.90;11.33;;;5.10;1.00;;;;;;4836644;28;20234;-76
2021/03/01 07:45:14;;;;;;;13.63;11.27;;;5.20;1.00;;;;;;4836987;28;20554;-74
2021/03/01 07:47:36;;;;;;;13.93;10.67;;;5.20;99.90;;;;;;4839156;28;20186;-74
2021/03/01 07:49:58;;;;;;;13.43;11.07;;;5.30;1.00;;;;;;4837648;28;20567;-75
2021/03/01 07:52:41;;;;;;;13.23;10.47;;;5.30;1.00;;;;;;4838822;28;20205;-74
2021/03/01 07:55:06;;;;;;;12.43;10.00;;;5.40;1.00;;;;;;4833037;28;20211;-76
2021/03/01 07:57:29;;;;;;;11.57;9.63;;;5.50;1.00;;;;;;4838927;28;20233;-76
2021/03/01 07:59:52;;;;;;;10.07;8.97;;;5.60;99.90;;;;;;4838949;28;20186;-74
2021/03/01 08:02:23;;;;;;;14.33;11.53;;;5.80;1.00;;;;;;4835361;28;20207;-75
2021/03/01 08:04:46;;;;;;;11.03;9.33;;;5.90;1.00;;;;;;4835390;28;20207;-74
2021/03/01 08:07:08;;;;;;;10.43;9.33;;;6.10;99.90;;;;;;4838642;28;20203;-74
2021/03/01 08:09:48;;;;;;;10.53;9.43;;;6.20;1.00;;;;;;4837264;28;20206;-74
2021/03/01 08:12:11;;;;;;;10.40;8.23;;;6.40;99.90;;;;;;4837127;28;20680;-73
2021/03/01 08:14:57;;;;;;;9.80;8.43;;;6.50;1.00;;;;;;4836215;28;20596;-75
2021/03/01 08:17:35;;;;;;;9.60;7.93;;;6.60;1.00;;;;;;4855369;28;20197;-74
2021/03/01 08:19:58;;;;;;;8.20;7.30;;;6.70;1.00;;;;;;4853884;28;20865;-75
2021/03/01 08:22:20;;;;;;;7.70;6.90;;;6.80;99.90;;;;;;4838970;28;20291;-74
2021/03/01 08:24:45;;;;;;;8.43;7.67;;;6.90;99.90;;;;;;4856956;28;20190;-75
2021/03/01 08:27:41;;;;;;;7.60;6.80;;;7.00;99.90;;;;;;4822371;28;20195;-74
2021/03/01 08:30:21;;;;;;;8.40;7.00;;;7.10;1.00;;;;;;4857308;28;20194;-73
2021/03/01 08:32:44;;;;;;;7.97;7.23;;;7.20;1.00;;;;;;4855913;28;20195;-74
2021/03/01 08:35:22;;;;;;;8.03;6.90;;;7.30;1.00;;;;;;4855246;28;20723;-75
2021/03/01 08:37:47;;;;;;;7.23;6.53;;;7.30;1.00;;;;;;4856498;28;20628;-73
2021/03/01 08:40:19;;;;;;;8.20;7.33;;;7.30;1.00;;;;;;4855782;28;20202;-75
2021/03/01 08:42:52;;;;;;;7.70;6.53;;;7.30;1.00;;;;;;4855829;28;20260;-74
2021/03/01 08:45:29;;;;;;;7.73;6.90;;;7.30;1.00;;;;;;4855076;28;20232;-75
2021/03/01 08:47:52;;;;;;;9.23;7.30;;;7.40;1.00;;;;;;4856376;28;20213;-74
2021/03/01 08:50:15;;;;;;;7.67;6.90;;;7.50;1.00;;;;;;4855478;28;20233;-74
2021/03/01 08:52:37;;;;;;;7.50;6.67;;;7.70;1.00;;;;;;4855621;28;20276;-75
2021/03/01 08:55:05;;;;;;;8.87;7.97;;;8.10;1.00;;;;;;4855040;28;20206;-75
2021/03/01 08:57:27;;;;;;;7.33;6.63;;;8.50;1.00;;;;;;4856952;28;20557;-75
2021/03/01 09:00:07;;;;;;;6.00;5.50;;;8.90;99.90;;;;;;4856331;28;20193;-74
2021/03/01 09:02:30;;;;;;;6.73;5.87;;;9.30;99.90;;;;;;4855092;28;20733;-75
2021/03/01 09:05:05;;;;;;;7.27;6.57;;;9.60;38.10;;;;;;4856562;28;20194;-74
2021/03/01 09:07:42;;;;;;;5.57;5.00;;;9.90;1.00;;;;;;4855556;28;20225;-75
2021/03/01 09:10:06;;;;;;;5.03;4.63;;;10.00;1.00;;;;;;4856344;28;20224;-74
2021/03/01 09:12:28;;;;;;;5.13;4.70;;;10.00;1.00;;;;;;4855621;28;20279;-75
2021/03/01 09:14:55;;;;;;;5.70;4.53;;;9.90;1.00;;;;;;4856439;28;20193;-75
2021/03/01 09:17:18;;;;;;;4.37;4.07;;;9.80;1.00;;;;;;4856763;28;20648;-73
2021/03/01 09:19:41;;;;;;;5.03;4.63;;;9.80;1.00;;;;;;4858575;28;20256;-75
2021/03/01 09:22:03;;;;;;;5.00;4.53;;;9.90;1.00;;;;;;4842030;28;20242;-74
2021/03/01 09:24:31;;;;;;;4.73;4.37;;;9.90;1.00;;;;;;4859737;28;20186;-76
2021/03/01 09:26:53;;;;;;;4.23;3.90;;;10.00;1.00;;;;;;4857571;28;20195;-75
2021/03/01 09:29:17;;;;;;;3.80;3.50;;;10.00;1.00;;;;;;4859262;28;20240;-74
2021/03/01 09:31:42;;;;;;;3.60;3.30;;;10.20;1.00;;;;;;4858501;28;20737;-76
2021/03/01 09:34:05;;;;;;;4.60;4.20;;;10.40;1.00;;;;;;4860027;28;20714;-75
2021/03/01 09:36:29;;;;;;;3.90;3.57;;;10.40;1.00;;;;;;4860556;28;20185;-74
2021/03/01 09:38:53;;;;;;;4.07;3.77;;;10.40;1.00;;;;;;4860342;28;20190;-74
2021/03/01 09:41:15;;;;;;;3.87;3.57;;;10.40;1.00;;;;;;4855068;28;20198;-76
2021/03/01 09:43:40;;;;;;;4.43;4.07;;;10.30;1.00;;;;;;4858063;28;20303;-75
2021/03/01 09:46:03;;;;;;;4.83;4.43;;;10.30;1.00;;;;;;4841868;28;20225;-73
2021/03/01 09:48:27;;;;;;;4.50;4.10;;;10.30;1.00;;;;;;4860086;28;20690;-75
2021/03/01 09:50:49;;;;;;;4.87;4.47;;;10.30;1.00;;;;;;4858615;28;20243;-76
2021/03/01 09:53:14;;;;;;;4.00;3.70;;;10.20;1.00;;;;;;4858592;28;20550;-75
2021/03/01 09:55:37;;;;;;;4.90;4.43;;;10.10;1.00;;;;;;4860210;28;20209;-76
2021/03/01 09:57:59;;;;;;;4.77;4.37;;;9.90;1.00;;;;;;4860181;28;20186;-75
2021/03/01 10:00:27;;;;;;;4.60;4.20;;;9.70;1.00;;;;;;4859420;28;20256;-75
2021/03/01 10:03:02;;;;;;;5.57;5.10;;;9.50;1.00;;;;;;4859432;28;20205;-75
2021/03/01 10:05:25;;;;;;;6.07;4.87;;;9.40;1.00;;;;;;4841562;28;20195;-76
2021/03/01 10:07:54;;;;;;;5.20;4.77;;;9.30;1.00;;;;;;4859879;28;20622;-73
2021/03/01 10:10:18;;;;;;;5.43;4.93;;;9.30;1.00;;;;;;4859861;28;20240;-73
2021/03/01 10:12:44;;;;;;;5.00;4.60;;;9.30;1.00;;;;;;4842003;28;20202;-74
2021/03/01 10:15:07;;;;;;;5.37;4.87;;;9.30;1.00;;;;;;4857884;28;20190;-77
2021/03/01 10:17:31;;;;;;;4.67;4.33;;;9.50;1.00;;;;;;4840513;28;20179;-75
2021/03/01 10:19:53;;;;;;;4.60;4.17;;;9.60;1.00;;;;;;4839567;28;20281;-76
2021/03/01 10:22:15;;;;;;;4.33;3.93;;;9.60;1.00;;;;;;4838847;28;20297;-75
2021/03/01 10:24:45;;;;;;;4.10;3.80;;;9.70;1.00;;;;;;4821336;28;20203;-74
2021/03/01 10:27:09;;;;;;;5.13;4.50;;;9.60;1.00;;;;;;4839185;28;20233;-76
2021/03/01 10:29:32;;;;;;;4.50;4.10;;;9.50;1.00;;;;;;4838895;28;20673;-75
2021/03/01 10:31:54;;;;;;;4.33;4.03;;;9.40;1.00;;;;;;4839412;28;20186;-75
2021/03/01 10:34:16;;;;;;;4.17;3.80;;;9.20;1.00;;;;;;4839490;28;20236;-75
2021/03/01 10:36:52;;;;;;;4.57;4.20;;;9.00;1.00;;;;;;4838203;28;20253;-75
2021/03/01 10:39:19;;;;;;;4.70;4.30;;;8.90;1.00;;;;;;4840212;28;20229;-75
2021/03/01 10:41:43;;;;;;;5.40;4.90;;;8.80;1.00;;;;;;4838690;28;20596;-75
2021/03/01 10:44:08;;;;;;;6.23;5.63;;;8.80;1.00;;;;;;4839605;28;20783;-76
2021/03/01 10:46:39;;;;;;;5.00;4.60;;;8.80;1.00;;;;;;4839605;28;20252;-74
2021/03/01 10:49:04;;;;;;;5.10;4.13;;;8.70;1.00;;;;;;4838596;28;20567;-73
2021/03/01 10:51:26;;;;;;;4.97;4.53;;;8.70;1.00;;;;;;4839965;28;20641;-75
2021/03/01 10:53:48;;;;;;;5.00;4.60;;;8.80;1.00;;;;;;4838345;28;20210;-77
2021/03/01 10:56:10;;;;;;;4.63;4.23;;;8.80;1.00;;;;;;4839896;28;20186;-74
2021/03/01 10:58:32;;;;;;;4.80;4.40;;;8.90;1.00;;;;;;4839977;28;20183;-76
2021/03/01 11:00:55;;;;;;;5.30;4.80;;;9.10;1.00;;;;;;4836411;28;20309;-77
2021/03/01 11:03:17;;;;;;;5.40;4.90;;;9.20;1.00;;;;;;4839108;28;21007;-76
2021/03/01 11:05:43;;;;;;;4.23;3.90;;;9.50;1.00;;;;;;4840006;28;20239;-76
2021/03/01 11:08:06;;;;;;;5.33;4.83;;;9.50;1.00;;;;;;4837954;28;20207;-75
2021/03/01 11:10:28;;;;;;;6.07;4.97;;;9.70;1.00;;;;;;4838771;28;20645;-76
2021/03/01 11:12:50;;;;;;;4.20;3.90;;;9.90;1.00;;;;;;4839615;28;20187;-75
2021/03/01 11:15:13;;;;;;;4.37;3.97;;;10.10;1.00;;;;;;4836661;28;20199;-76
2021/03/01 11:17:36;;;;;;;3.70;3.40;;;10.20;1.00;;;;;;4838767;28;20589;-76
2021/03/01 11:19:58;;;;;;;3.23;3.03;;;10.30;1.00;;;;;;4837869;28;20191;-75
2021/03/01 11:22:22;;;;;;;4.77;4.37;;;10.40;1.00;;;;;;4837832;28;20227;-77
2021/03/01 11:24:44;;;;;;;3.50;3.20;;;10.40;1.00;;;;;;4852846;28;20198;-78
2021/03/01 11:27:06;;;;;;;3.57;3.33;;;10.50;1.00;;;;;;4838566;28;20253;-77
2021/03/01 11:29:28;;;;;;;3.00;2.80;;;10.50;1.00;;;;;;4844500;28;20182;-78
2021/03/01 11:31:51;;;;;;;2.87;2.67;;;10.50;1.00;;;;;;4856854;28;20182;-77
2021/03/01 11:34:14;;;;;;;3.30;3.00;;;10.50;1.00;;;;;;4848346;28;20257;-78
2021/03/01 11:36:37;;;;;;;3.50;3.20;;;10.40;1.00;;;;;;4838578;28;20221;-77
2021/03/01 11:38:59;;;;;;;3.30;3.00;;;10.40;1.00;;;;;;4841790;28;20245;-77
2021/03/01 11:41:21;;;;;;;3.10;2.90;;;10.40;1.00;;;;;;4841049;28;20228;-78
2021/03/01 11:43:44;;;;;;;3.13;2.93;;;10.40;1.00;;;;;;4846985;28;20229;-78
2021/03/01 11:46:06;;;;;;;3.40;3.10;;;10.40;1.00;;;;;;4845726;28;20199;-77
2021/03/01 11:48:28;;;;;;;3.13;2.93;;;10.30;1.00;;;;;;4853237;28;20191;-78
2021/03/01 11:50:51;;;;;;;3.77;3.47;;;10.30;1.00;;;;;;4849198;28;20256;-77
2021/03/01 11:53:15;;;;;;;3.80;3.50;;;10.30;1.00;;;;;;4846406;28;20260;-78
2021/03/01 11:55:38;;;;;;;3.57;3.30;;;10.20;1.00;;;;;;4846033;28;20263;-76
2021/03/01 11:58:00;;;;;;;3.70;3.40;;;10.10;1.00;;;;;;4832877;28;20597;-78
2021/03/01 12:00:23;;;;;;;3.30;3.10;;;10.00;1.00;;;;;;4850048;28;20260;-75
2021/03/01 12:02:45;;;;;;;2.97;2.77;;;9.90;1.00;;;;;;4841188;28;20218;-79
2021/03/01 12:05:08;;;;;;;2.87;2.67;;;9.90;1.00;;;;;;4839750;28;20237;-78
2021/03/01 12:07:31;;;;;;;2.83;2.63;;;9.90;1.00;;;;;;4837932;28;20750;-76
2021/03/01 12:09:53;;;;;;;3.67;2.97;;;9.90;1.00;;;;;;4844568;28;20264;-77
2021/03/01 12:12:15;;;;;;;2.87;2.67;;;9.90;1.00;;;;;;4857347;28;20182;-78
2021/03/01 12:14:37;;;;;;;3.77;3.47;;;10.00;1.00;;;;;;4853726;28;20711;-78
2021/03/01 12:17:01;;;;;;;4.17;3.80;;;10.00;1.00;;;;;;4839415;28;20723;-77
2021/03/01 12:19:23;;;;;;;3.77;3.50;;;9.90;1.00;;;;;;4856827;28;20194;-77
2021/03/01 12:21:47;;;;;;;3.77;3.47;;;9.90;1.00;;;;;;4856741;28;20280;-78
2021/03/01 12:24:12;;;;;;;3.73;3.43;;;9.80;1.00;;;;;;4855207;28;20592;-76
2021/03/01 12:26:34;;;;;;;3.87;3.50;;;9.80;1.00;;;;;;4855708;28;20194;-77
2021/03/01 12:28:57;;;;;;;3.20;2.93;;;9.80;1.00;;;;;;4854955;28;20734;-78
2021/03/01 12:31:19;;;;;;;3.60;3.30;;;9.80;1.00;;;;;;4854909;28;20894;-78
2021/03/01 12:33:41;;;;;;;3.47;3.20;;;9.70;1.00;;;;;;4852206;28;20186;-79
2021/03/01 12:36:03;;;;;;;3.60;3.40;;;9.70;1.00;;;;;;4832011;28;20233;-77
2021/03/01 12:38:26;;;;;;;3.30;3.00;;;9.70;1.00;;;;;;4838873;28;20245;-77
2021/03/01 12:40:49;;;;;;;3.77;3.40;;;9.60;1.00;;;;;;4848629;28;20279;-77